Peachgrove, Kentucky
Current Conditions -  °F | °C
As of 11:53 AM on Friday 31 Oct 2014 (Local Time) from KLUK Reporting Station
Light Rain Light Rain  
Wind Chill: 45°   Ceiling: 4800
Heat Index: 48°   Visibility: 7mi
Dew Point: 41°   Wind: 6mph
Humidity: 77%   Direction: 260°W
Pressure: 29.96"   Gusts: NA
Location:  38.7935°N, 84.3267°W
Report Text: KLUK 311553Z 26005KT 7SM -RA OVC048 09/05 A2996 RMK AO2 RAB28 SLP148 P0000 T00890050
Loading
Personal Weather Stations






























Interactive Weather Map
Tropical Storm Tracking
New forecast layout! Learn more

10-Day Weather Forecast

Advertisements
Track Severe Weather on mobile